Time;durP1;ratioP1;P1;durP2;ratioP2;P2;SDS_P1;SDS_P2;PMS_P1;PMS_P2;Temp;Humidity;BMP_temperature;BMP_pressure;BME280_temperature;BME280_humidity;BME280_pressure;Samples;Min_cycle;Max_cycle;Signal;HPM_P1;HPM_P2
2023/07/21 00:01:09;;;;;;;;;;;19.40;39.50;;;18.66;40.29;100904.50;12253617;19;19936;-87
2023/07/21 00:05:11;;;;;;;;;;;19.40;39.50;;;18.55;40.57;100897.50;12254177;19;19911;-87
2023/07/21 00:09:12;;;;;;;;;;;19.30;39.40;;;18.44;40.48;100901.06;12251951;19;19911;-87
2023/07/21 00:13:14;;;;;;;;;;;19.20;39.40;;;18.33;40.42;100893.22;12254694;19;19943;-87
2023/07/21 00:17:20;;;;;;;;;;;19.10;39.40;;;18.32;40.61;100895.00;12248360;19;20208;-87
2023/07/21 00:21:22;;;;;;;;;;;19.10;39.60;;;18.02;40.45;100848.25;12254600;19;19919;-87
2023/07/21 00:25:24;;;;;;;;;;;19.00;39.70;;;18.11;40.43;100876.53;12251099;19;19907;-87
2023/07/21 00:29:25;;;;;;;;;;;18.90;40.10;;;17.99;40.56;100864.38;12251665;19;19915;-87
2023/07/21 00:33:28;;;;;;;;;;;18.80;39.70;;;17.99;40.80;100871.47;12252630;19;19931;-87
2023/07/21 00:37:30;;;;;;;;;;;18.80;39.70;;;17.89;40.88;100859.00;12247866;19;19925;-87
2023/07/21 00:41:32;;;;;;;;;;;18.70;39.90;;;17.77;40.63;100853.88;12246868;19;19948;-87
2023/07/21 00:45:34;;;;;;;;;;;18.60;39.90;;;17.66;40.95;100847.69;12239641;19;19922;-87
2023/07/21 00:49:37;;;;;;;;;;;18.50;39.90;;;17.66;40.99;100866.19;12253408;19;19922;-87
2023/07/21 00:53:38;;;;;;;;;;;18.50;40.40;;;17.60;40.83;100857.91;12263041;19;19923;-87
2023/07/21 00:57:39;;;;;;;;;;;18.40;40.10;;;17.58;41.08;100876.53;12257711;19;19922;-87
2023/07/21 01:01:41;;;;;;;;;;;18.30;40.00;;;17.54;41.14;100869.81;12261519;19;19930;-87
2023/07/21 01:05:47;;;;;;;;;;;18.30;40.10;;;17.51;40.97;100862.16;12258420;19;19925;-87
2023/07/21 01:09:49;;;;;;;;;;;18.30;40.10;;;17.45;40.89;100860.03;12257754;19;19918;-87
2023/07/21 01:13:53;;;;;;;;;;;18.20;40.10;;;17.32;41.05;100859.34;12260440;19;19919;-87
2023/07/21 01:17:55;;;;;;;;;;;18.20;40.20;;;17.11;41.05;100831.09;12255439;19;19915;-87
2023/07/21 01:22:10;;;;;;;;;;;18.10;40.30;;;17.16;41.23;100850.03;12255981;19;19993;-87
2023/07/21 01:26:12;;;;;;;;;;;18.00;40.30;;;17.13;41.15;100860.84;12259060;19;19922;-87
2023/07/21 01:30:16;;;;;;;;;;;18.00;40.20;;;17.18;41.39;100866.59;12256839;19;19919;-87
2023/07/21 01:34:17;;;;;;;;;;;17.90;40.30;;;17.06;41.38;100849.09;12260804;19;19907;-87
2023/07/21 01:38:20;;;;;;;;;;;17.90;40.40;;;17.07;41.27;100861.34;12259855;19;19918;-87
2023/07/21 01:42:29;;;;;;;;;;;17.90;40.50;;;16.96;41.36;100856.09;12259983;19;19941;-87
2023/07/21 01:46:31;;;;;;;;;;;17.80;40.50;;;16.86;41.63;100848.06;12256438;19;19915;-87
2023/07/21 01:50:33;;;;;;;;;;;17.80;40.40;;;16.91;41.54;100867.00;12254433;19;20266;-87
2023/07/21 01:54:51;;;;;;;;;;;17.70;40.40;;;16.81;41.41;100866.88;12258122;19;19911;-87
2023/07/21 01:58:55;;;;;;;;;;;17.70;40.40;;;16.52;41.24;100812.94;12254879;19;20280;-87
2023/07/21 02:02:57;;;;;;;;;;;17.60;40.40;;;16.51;41.61;100821.81;12257937;19;19915;-87
2023/07/21 02:06:59;;;;;;;;;;;17.60;40.60;;;16.70;41.78;100864.22;12255655;19;19932;-87
2023/07/21 02:11:01;;;;;;;;;;;17.60;40.60;;;16.42;41.65;100831.28;12258234;19;20325;-87
2023/07/21 02:15:28;;;;;;;;;;;17.50;40.60;;;16.49;41.47;100865.91;12256633;19;19915;-88
2023/07/21 02:19:30;;;;;;;;;;;17.40;40.50;;;16.36;41.86;100850.19;12259745;19;20468;-87
2023/07/21 02:23:32;;;;;;;;;;;17.30;40.60;;;16.27;41.77;100851.75;12262392;19;19922;-87
2023/07/21 02:27:34;;;;;;;;;;;17.30;40.60;;;16.35;41.66;100864.34;12257106;19;19915;-87
2023/07/21 02:31:37;;;;;;;;;;;17.20;40.60;;;15.98;41.58;100819.75;12259907;19;20258;-88
2023/07/21 02:35:40;;;;;;;;;;;17.20;40.60;;;16.19;41.69;100859.41;12254821;19;20328;-87
2023/07/21 02:39:41;;;;;;;;;;;17.10;40.70;;;16.08;41.82;100846.22;12257511;19;19911;-87
2023/07/21 02:43:42;;;;;;;;;;;17.00;40.80;;;16.07;41.87;100855.94;12258171;19;19923;-87
2023/07/21 02:47:44;;;;;;;;;;;17.00;40.70;;;16.10;41.76;100865.41;12253033;19;19919;-87
2023/07/21 02:51:46;;;;;;;;;;;16.90;40.70;;;16.02;41.79;100850.19;12255894;19;19943;-87
2023/07/21 02:55:47;;;;;;;;;;;16.90;40.80;;;15.88;41.93;100835.41;12255603;19;19915;-87
2023/07/21 02:59:50;;;;;;;;;;;16.80;40.70;;;15.75;42.21;100824.13;12256054;19;19939;-87
2023/07/21 03:03:56;;;;;;;;;;;16.80;40.60;;;15.59;41.99;100802.53;12254341;19;19922;-88
2023/07/21 03:07:59;;;;;;;;;;;16.80;40.70;;;15.73;42.05;100838.38;12250975;19;19922;-87
2023/07/21 03:12:01;;;;;;;;;;;16.70;40.80;;;15.59;42.07;100834.09;12253149;19;19922;-87
2023/07/21 03:16:36;;;;;;;;;;;16.60;40.80;;;15.39;42.24;100807.47;12252895;19;19906;-87
2023/07/21 03:20:39;;;;;;;;;;;16.50;40.90;;;15.46;42.16;100835.00;12254094;19;19966;-87
2023/07/21 03:24:44;;;;;;;;;;;16.50;40.80;;;14.99;42.10;100765.69;12254096;19;19930;-87
2023/07/21 03:28:45;;;;;;;;;;;16.40;40.90;;;15.32;42.16;100837.81;12252526;19;19918;-87
2023/07/21 03:32:47;;;;;;;;;;;16.30;40.90;;;15.14;42.41;100815.47;12253681;19;19933;-88
2023/07/21 03:36:52;;;;;;;;;;;16.30;41.10;;;15.32;42.29;100848.34;12252796;19;19914;-87
2023/07/21 03:41:02;;;;;;;;;;;16.20;41.00;;;15.15;42.30;100828.53;12252630;19;19935;-87
2023/07/21 03:45:08;;;;;;;;;;;16.20;41.00;;;15.37;42.44;100858.53;12250880;19;19914;-87
2023/07/21 03:49:11;;;;;;;;;;;16.20;41.00;;;15.14;42.47;100818.13;12249548;19;19919;-87
2023/07/21 03:53:16;;;;;;;;;;;16.20;41.20;;;15.36;42.31;100855.03;12250055;19;19911;-87
2023/07/21 03:57:20;;;;;;;;;;;16.20;41.30;;;15.27;42.51;100837.31;12248387;19;19930;-87
2023/07/21 04:01:21;;;;;;;;;;;16.30;41.20;;;15.34;42.43;100845.59;12250201;19;20287;-87
2023/07/21 04:05:23;;;;;;;;;;;16.30;41.40;;;15.14;42.59;100831.25;12249178;19;19943;-87
2023/07/21 04:09:24;;;;;;;;;;;16.30;41.30;;;15.28;42.47;100852.13;12249419;19;19918;-87
2023/07/21 04:13:26;;;;;;;;;;;16.30;41.40;;;15.30;42.55;100863.41;12250904;19;19915;-87
2023/07/21 04:17:28;;;;;;;;;;;16.30;41.60;;;15.23;42.84;100855.13;12247350;19;20397;-87
2023/07/21 04:21:29;;;;;;;;;;;16.20;41.80;;;14.89;42.52;100801.47;12255511;19;19919;-87
2023/07/21 04:25:32;;;;;;;;;;;16.20;41.50;;;15.15;42.60;100854.84;12259874;19;19922;-87
2023/07/21 04:29:33;;;;;;;;;;;16.10;41.50;;;15.05;42.68;100838.88;12260047;19;19915;-88
2023/07/21 04:33:35;;;;;;;;;;;16.10;41.50;;;15.05;42.71;100841.50;12254990;19;19918;-89
2023/07/21 04:37:38;;;;;;;;;;;16.00;41.70;;;14.99;42.92;100830.59;12252545;19;19987;-88
2023/07/21 04:41:40;;;;;;;;;;;16.00;41.80;;;14.95;42.75;100814.19;12262195;19;19922;-89
2023/07/21 04:45:42;;;;;;;;;;;16.00;41.80;;;15.08;42.91;100831.72;12256573;19;19910;-89
2023/07/21 04:49:52;;;;;;;;;;;16.00;41.90;;;15.12;43.10;100839.28;12254856;19;20341;-89
2023/07/21 04:53:53;;;;;;;;;;;16.10;42.00;;;15.10;42.96;100827.19;12258788;19;19915;-89
2023/07/21 04:57:55;;;;;;;;;;;16.10;42.10;;;15.00;43.19;100788.38;12254171;19;20337;-88
2023/07/21 05:01:58;;;;;;;;;;;16.20;42.60;;;15.22;43.30;100810.50;12257688;19;19925;-88
2023/07/21 05:05:59;;;;;;;;;;;16.20;42.60;;;15.19;43.42;100784.41;12254312;19;19950;-88
2023/07/21 05:10:02;;;;;;;;;;;16.40;42.70;;;15.44;43.35;100804.47;12252622;19;19927;-88
2023/07/21 05:14:04;;;;;;;;;;;16.50;42.90;;;15.54;43.38;100800.22;12257524;19;19915;-88
2023/07/21 05:18:21;;;;;;;;;;;16.60;43.20;;;15.82;43.44;100811.34;12252498;19;20321;-88
2023/07/21 05:22:38;;;;;;;;;;;16.80;43.10;;;15.82;43.59;100791.09;12257721;19;20325;-88
2023/07/21 05:26:40;;;;;;;;;;;16.90;43.10;;;16.04;43.78;100815.78;12254690;19;19922;-88
2023/07/21 05:30:56;;;;;;;;;;;17.10;43.30;;;16.03;43.74;100790.41;12258305;19;19926;-87
2023/07/21 05:35:13;;;;;;;;;;;17.20;43.40;;;16.17;43.76;100787.53;12251182;19;19939;-86
2023/07/21 05:39:17;;;;;;;;;;;17.30;43.30;;;16.31;43.88;100804.91;12257362;19;19922;-88
2023/07/21 05:43:19;;;;;;;;;;;17.50;43.40;;;16.43;44.11;100795.22;12257549;19;19948;-88
2023/07/21 05:47:21;;;;;;;;;;;17.60;43.50;;;16.46;43.96;100793.19;12251840;19;20401;-88
2023/07/21 05:51:26;;;;;;;;;;;17.70;43.80;;;16.67;44.05;100801.19;12255826;19;19925;-87
2023/07/21 05:55:35;;;;;;;;;;;17.80;43.50;;;16.81;44.05;100805.38;12254629;19;19954;-87
2023/07/21 05:59:37;;;;;;;;;;;17.90;43.50;;;16.90;44.09;100795.88;12255017;19;19927;-88
2023/07/21 06:03:39;;;;;;;;;;;18.00;43.60;;;16.98;44.29;100804.03;12257217;19;19923;-88
2023/07/21 06:07:43;;;;;;;;;;;18.10;43.80;;;17.03;44.28;100797.41;12251462;19;19978;-87
2023/07/21 06:11:53;;;;;;;;;;;18.30;43.90;;;17.18;44.25;100808.53;12257522;19;19918;-88
2023/07/21 06:16:13;;;;;;;;;;;18.20;43.50;;;17.23;44.08;100798.44;12257051;19;19919;-88
2023/07/21 06:20:24;;;;;;;;;;;18.40;43.60;;;17.37;44.37;100812.31;12246445;19;19919;-88
2023/07/21 06:24:26;;;;;;;;;;;18.50;43.40;;;17.43;44.22;100807.34;12252045;19;19921;-88
2023/07/21 06:28:28;;;;;;;;;;;18.60;43.50;;;17.39;44.53;100792.75;12248800;19;19922;-88
2023/07/21 06:32:30;;;;;;;;;;;18.70;44.30;;;17.60;44.41;100810.38;12251358;19;19910;-88
2023/07/21 06:36:36;;;;;;;;;;;18.80;43.90;;;17.57;44.55;100795.63;12248826;19;19926;-88
2023/07/21 06:40:58;;;;;;;;;;;18.90;43.70;;;17.74;44.33;100796.00;12251048;19;19966;-88
2023/07/21 06:45:09;;;;;;;;;;;18.90;43.90;;;17.72;44.52;100776.84;12247377;19;19919;-89
2023/07/21 06:49:27;;;;;;;;;;;19.00;43.50;;;17.89;44.50;100797.41;12247827;19;19919;-88
2023/07/21 06:53:35;;;;;;;;;;;19.10;43.60;;;18.04;44.36;100806.69;12254466;19;19936;-88
2023/07/21 06:57:38;;;;;;;;;;;19.20;43.60;;;18.10;44.46;100807.94;12246030;19;19923;-88
2023/07/21 07:01:41;;;;;;;;;;;19.30;43.40;;;18.17;44.63;100803.78;12249949;19;19930;-88
2023/07/21 07:05:45;;;;;;;;;;;19.30;43.50;;;18.20;44.61;100800.91;12248774;19;19927;-88
2023/07/21 07:09:47;;;;;;;;;;;19.50;43.70;;;18.32;44.46;100805.13;12245224;19;19919;-88
2023/07/21 07:13:49;;;;;;;;;;;19.50;43.80;;;18.40;44.40;100804.47;12249633;19;19918;-88
2023/07/21 07:17:51;;;;;;;;;;;19.60;43.60;;;18.37;44.57;100791.50;12246041;19;19919;-88
2023/07/21 07:21:53;;;;;;;;;;;19.70;43.60;;;18.41;44.54;100789.44;12248565;19;19936;-88
2023/07/21 07:25:54;;;;;;;;;;;19.70;43.60;;;18.52;44.50;100792.84;12247530;19;19955;-88
2023/07/21 07:29:55;;;;;;;;;;;19.80;43.50;;;18.46;44.61;100769.53;12247067;19;19922;-88
2023/07/21 07:33:57;;;;;;;;;;;19.80;43.20;;;18.69;44.75;100799.28;12250580;19;19922;-89
2023/07/21 07:37:59;;;;;;;;;;;19.90;43.30;;;18.56;44.84;100765.13;12247615;19;19974;-88
2023/07/21 07:42:01;;;;;;;;;;;19.90;43.20;;;18.65;44.57;100775.88;12250086;19;19919;-88
2023/07/21 07:46:05;;;;;;;;;;;20.00;43.50;;;18.68;44.77;100770.28;12246519;19;20344;-88
2023/07/21 07:50:09;;;;;;;;;;;20.00;43.00;;;18.90;44.64;100807.16;12248662;19;20332;-90
2023/07/21 07:54:10;;;;;;;;;;;20.00;43.00;;;18.92;44.65;100797.25;12247855;19;19956;-87
2023/07/21 07:58:12;;;;;;;;;;;20.10;43.10;;;18.98;44.76;100793.22;12246289;19;19994;-88
2023/07/21 08:02:14;;;;;;;;;;;20.20;43.30;;;18.88;44.85;100761.47;12249717;19;19919;-87
2023/07/21 08:06:16;;;;;;;;;;;20.20;43.40;;;19.05;44.90;100778.47;12247517;19;19928;-86
2023/07/21 08:10:17;;;;;;;;;;;20.30;43.70;;;19.23;44.71;100790.03;12246139;19;19934;-88
2023/07/21 08:14:18;;;;;;;;;;;20.30;43.60;;;19.31;44.78;100794.66;12248336;19;20353;-88
2023/07/21 08:18:20;;;;;;;;;;;20.40;43.20;;;19.41;44.69;100789.31;12246089;19;19961;-89
2023/07/21 08:22:21;;;;;;;;;;;20.50;43.40;;;19.50;44.69;100792.97;12244653;19;20261;-87
2023/07/21 08:26:23;;;;;;;;;;;20.60;43.90;;;19.44;44.70;100763.41;12241497;19;19922;-87
2023/07/21 08:30:25;;;;;;;;;;;20.70;44.10;;;19.41;45.05;100731.06;12240174;19;19929;-88
2023/07/21 08:34:26;;;;;;;;;;;20.80;43.60;;;19.79;44.89;100777.84;12246581;19;19915;-88
2023/07/21 08:38:28;;;;;;;;;;;20.90;43.40;;;19.86;44.79;100763.06;12244602;19;19982;-88
2023/07/21 08:42:30;;;;;;;;;;;21.00;43.70;;;19.84;44.98;100749.13;12245132;19;20452;-88
2023/07/21 08:46:32;;;;;;;;;;;21.20;43.60;;;20.08;45.08;100763.69;12240076;19;19928;-89
2023/07/21 08:50:38;;;;;;;;;;;21.30;43.60;;;20.07;45.05;100743.47;12243665;19;19954;-88
2023/07/21 08:54:40;;;;;;;;;;;21.40;43.10;;;20.13;45.05;100736.75;12245306;19;19903;-88
2023/07/21 08:58:43;;;;;;;;;;;21.50;43.00;;;20.42;44.85;100779.88;12245252;19;19911;-88
2023/07/21 09:02:47;;;;;;;;;;;21.60;43.00;;;20.32;45.02;100741.94;12246899;19;20004;-88
2023/07/21 09:06:56;;;;;;;;;;;21.70;43.10;;;20.40;44.99;100742.06;12248277;19;20330;-88
2023/07/21 09:11:02;;;;;;;;;;;21.80;43.00;;;20.51;45.07;100747.16;12251095;19;19911;-87
2023/07/21 09:15:10;;;;;;;;;;;21.90;43.00;;;20.81;44.69;100773.53;12256171;19;19918;-88
2023/07/21 09:19:12;;;;;;;;;;;22.00;43.10;;;20.83;44.65;100756.47;12256741;19;19951;-84
2023/07/21 09:23:18;;;;;;;;;;;22.10;43.00;;;20.98;44.71;100760.28;12259148;19;19923;-84
2023/07/21 09:27:19;;;;;;;;;;;22.20;42.80;;;21.06;44.54;100762.16;12243683;19;20258;-84
2023/07/21 09:31:28;;;;;;;;;;;22.30;42.80;;;21.14;44.92;100758.75;12260432;19;19945;-84
2023/07/21 09:35:29;;;;;;;;;;;22.30;42.90;;;21.26;44.86;100754.06;12255667;19;19923;-84
2023/07/21 09:39:31;;;;;;;;;;;22.40;42.70;;;21.33;44.88;100744.47;12259040;19;20015;-84
2023/07/21 09:43:33;;;;;;;;;;;22.50;42.70;;;21.36;44.97;100738.84;12255208;19;19918;-84
2023/07/21 09:47:37;;;;;;;;;;;22.60;42.50;;;21.52;44.85;100744.31;12255609;19;19922;-84
2023/07/21 09:51:39;;;;;;;;;;;22.70;42.60;;;21.69;44.89;100747.91;12257816;19;19910;-84
2023/07/21 09:55:42;;;;;;;;;;;22.90;42.60;;;21.81;44.79;100744.00;12252144;19;20506;-84
2023/07/21 09:59:47;;;;;;;;;;;23.00;42.40;;;21.89;44.95;100732.56;12249617;19;20294;-85
2023/07/21 10:03:48;;;;;;;;;;;23.10;42.20;;;22.10;44.33;100745.47;12252308;19;20338;-85
2023/07/21 10:07:51;;;;;;;;;;;23.30;41.90;;;22.17;44.88;100735.03;12251180;19;20326;-85
2023/07/21 10:11:52;;;;;;;;;;;23.40;41.70;;;22.32;44.65;100736.13;12257229;19;19914;-85
2023/07/21 10:16:21;;;;;;;;;;;23.50;41.90;;;22.45;44.74;100735.66;12258404;19;19974;-86
2023/07/21 10:20:43;;;;;;;;;;;23.60;41.70;;;22.59;44.73;100728.88;12257824;19;19930;-85
2023/07/21 10:24:48;;;;;;;;;;;23.70;41.90;;;22.70;44.34;100720.59;12268897;19;19939;-85
2023/07/21 10:28:51;;;;;;;;;;;23.80;41.40;;;22.69;44.39;100693.13;12261456;19;19918;-85
2023/07/21 10:32:53;;;;;;;;;;;24.00;41.80;;;22.96;44.68;100715.97;12260090;19;19971;-85
2023/07/21 10:37:02;;;;;;;;;;;24.20;41.80;;;23.03;44.58;100688.69;12256924;19;19915;-85
2023/07/21 10:41:04;;;;;;;;;;;24.30;41.80;;;23.24;44.23;100707.66;12259440;19;20306;-84
2023/07/21 10:45:07;;;;;;;;;;;24.40;41.80;;;23.34;44.62;100697.66;12258999;19;19923;-84
2023/07/21 10:49:11;;;;;;;;;;;24.60;41.40;;;23.55;44.06;100709.63;12256031;19;20270;-85
2023/07/21 10:53:12;;;;;;;;;;;24.70;41.50;;;23.64;44.38;100705.94;12250789;19;19926;-84
2023/07/21 10:57:14;;;;;;;;;;;24.80;41.30;;;23.67;44.24;100702.09;12250363;19;19957;-84
2023/07/21 11:01:19;;;;;;;;;;;24.90;41.40;;;23.81;44.29;100710.22;12244896;19;19919;-84
2023/07/21 11:05:22;;;;;;;;;;;24.90;41.40;;;23.82;44.21;100706.56;12253654;19;20031;-84
2023/07/21 11:09:25;;;;;;;;;;;25.00;41.10;;;23.86;44.23;100699.06;12257860;19;19919;-84
2023/07/21 11:13:27;;;;;;;;;;;25.10;41.10;;;23.91;43.89;100706.56;12255905;19;19923;-85
2023/07/21 11:17:31;;;;;;;;;;;25.10;41.20;;;23.91;43.84;100699.38;12251820;19;20029;-84
2023/07/21 11:21:34;;;;;;;;;;;25.10;41.30;;;23.89;44.13;100703.22;12255033;19;19922;-84
2023/07/21 11:25:36;;;;;;;;;;;25.10;41.30;;;23.60;43.61;100653.94;12252776;19;19923;-84
2023/07/21 11:29:43;;;;;;;;;;;25.00;41.10;;;23.90;43.59;100696.88;12251056;19;20428;-84
2023/07/21 11:33:47;;;;;;;;;;;25.00;41.20;;;23.85;43.95;100676.91;12252143;19;19941;-85
2023/07/21 11:37:48;;;;;;;;;;;25.00;41.30;;;23.88;43.77;100688.22;12251630;19;19921;-84
2023/07/21 11:41:54;;;;;;;;;;;25.00;41.20;;;23.83;44.01;100676.22;12251235;19;19926;-84
2023/07/21 11:45:57;;;;;;;;;;;25.00;41.20;;;23.90;43.48;100688.88;12253807;19;19911;-85
2023/07/21 11:49:59;;;;;;;;;;;25.00;41.40;;;23.84;43.44;100677.06;12248100;19;19935;-85
2023/07/21 11:54:00;;;;;;;;;;;25.00;41.40;;;23.91;43.93;100682.53;12250879;19;19929;-84
2023/07/21 11:58:02;;;;;;;;;;;25.00;41.50;;;23.85;43.56;100679.56;12246415;19;20252;-84
2023/07/21 12:02:09;;;;;;;;;;;24.90;41.80;;;23.76;43.41;100677.94;12252923;19;19927;-84
2023/07/21 12:06:11;;;;;;;;;;;24.90;41.70;;;23.75;43.54;100681.59;12249704;19;19934;-84
2023/07/21 12:10:12;;;;;;;;;;;24.80;41.70;;;23.67;43.55;100678.09;12252362;19;20321;-84
2023/07/21 12:14:14;;;;;;;;;;;24.80;41.80;;;23.60;43.75;100659.25;12250220;19;19915;-84
2023/07/21 12:18:17;;;;;;;;;;;24.70;41.80;;;23.56;43.64;100666.78;12247818;19;19911;-83
2023/07/21 12:22:18;;;;;;;;;;;24.60;41.80;;;23.56;43.46;100663.28;12251034;19;19927;-84
2023/07/21 12:26:19;;;;;;;;;;;24.50;41.70;;;23.48;43.51;100666.81;12251576;19;20448;-84
2023/07/21 12:30:21;;;;;;;;;;;24.50;41.80;;;23.41;43.32;100658.66;12251407;19;19919;-85
2023/07/21 12:34:22;;;;;;;;;;;24.40;41.90;;;23.41;43.53;100665.81;12249153;19;20349;-84
2023/07/21 12:38:24;;;;;;;;;;;24.40;42.20;;;23.36;43.60;100666.34;12245628;19;20311;-84
2023/07/21 12:42:28;;;;;;;;;;;24.30;42.20;;;23.29;43.82;100664.53;12254591;19;19966;-84
2023/07/21 12:46:30;;;;;;;;;;;24.20;42.30;;;23.28;43.41;100679.69;12261393;19;19947;-84
2023/07/21 12:50:32;;;;;;;;;;;24.10;42.20;;;23.24;43.71;100675.69;12256000;19;19922;-84
2023/07/21 12:54:33;;;;;;;;;;;24.10;42.40;;;23.10;43.48;100653.22;12252270;19;20325;-84
2023/07/21 12:58:34;;;;;;;;;;;24.10;42.80;;;23.21;43.45;100672.53;12257686;19;20296;-85
2023/07/21 13:02:36;;;;;;;;;;;24.00;42.70;;;23.21;43.88;100676.00;12256449;19;19939;-85
2023/07/21 13:06:37;;;;;;;;;;;24.00;42.80;;;23.13;43.36;100660.03;12255927;19;20327;-84
2023/07/21 13:10:39;;;;;;;;;;;24.00;43.00;;;23.07;43.94;100652.72;12254691;19;19926;-84
2023/07/21 13:14:40;;;;;;;;;;;24.00;43.30;;;23.13;43.99;100670.69;12257872;19;19918;-84
2023/07/21 13:18:42;;;;;;;;;;;23.90;43.10;;;22.95;43.92;100653.03;12258958;19;19915;-85
2023/07/21 13:22:44;;;;;;;;;;;23.90;43.50;;;22.92;43.76;100647.19;12257615;19;19943;-85
2023/07/21 13:26:45;;;;;;;;;;;23.80;43.70;;;22.92;43.79;100656.00;12256651;19;19914;-84
2023/07/21 13:30:47;;;;;;;;;;;23.70;43.70;;;22.95;44.11;100658.38;12248718;19;19927;-85
2023/07/21 13:34:48;;;;;;;;;;;23.70;44.00;;;22.92;43.94;100660.50;12257256;19;19923;-85
2023/07/21 13:38:52;;;;;;;;;;;23.70;43.80;;;22.84;44.20;100642.69;12256670;19;19932;-85
2023/07/21 13:42:53;;;;;;;;;;;23.70;44.70;;;22.83;43.99;100646.38;12254190;19;19919;-85
2023/07/21 13:46:55;;;;;;;;;;;23.60;44.20;;;22.71;44.18;100631.72;12071076;19;3566552;-85
2023/07/21 13:50:57;;;;;;;;;;;23.60;43.90;;;22.82;44.17;100666.03;12246729;19;19922;-84
2023/07/21 13:54:59;;;;;;;;;;;23.60;44.00;;;22.76;44.23;100661.34;12249923;19;19926;-84
2023/07/21 13:59:00;;;;;;;;;;;23.50;43.80;;;22.79;44.51;100652.19;12249803;19;19922;-84
2023/07/21 14:03:02;;;;;;;;;;;23.50;43.70;;;22.79;44.05;100649.53;12254734;19;19918;-85
2023/07/21 14:07:05;;;;;;;;;;;23.50;43.90;;;22.74;44.46;100636.72;12248940;19;20276;-83
2023/07/21 14:11:08;;;;;;;;;;;23.60;43.80;;;22.85;44.42;100647.03;12240442;19;19922;-82
2023/07/21 14:15:12;;;;;;;;;;;23.60;43.90;;;22.82;44.29;100626.09;12252382;19;19934;-82
2023/07/21 14:19:14;;;;;;;;;;;23.60;43.90;;;22.71;44.21;100605.09;12251820;19;19918;-83
2023/07/21 14:23:16;;;;;;;;;;;23.60;44.00;;;22.85;44.37;100617.75;12252636;19;19930;-82
2023/07/21 14:27:18;;;;;;;;;;;23.60;44.10;;;22.85;44.44;100606.28;12249066;19;19941;-82
2023/07/21 14:31:20;;;;;;;;;;;23.60;44.50;;;22.78;44.75;100594.63;12252396;19;19914;-82
2023/07/21 14:35:22;;;;;;;;;;;23.60;44.50;;;22.87;44.51;100605.13;12252971;19;19919;-82
2023/07/21 14:39:25;;;;;;;;;;;23.60;44.10;;;22.89;44.38;100599.59;12253028;19;19923;-82
2023/07/21 14:43:27;;;;;;;;;;;23.70;44.30;;;22.67;44.53;100542.53;12252720;19;19922;-83
2023/07/21 14:47:30;;;;;;;;;;;23.70;44.00;;;22.91;44.77;100581.63;12246694;19;19978;-83
2023/07/21 14:51:32;;;;;;;;;;;23.70;44.00;;;23.01;44.74;100590.31;12250045;19;20348;-82
2023/07/21 14:55:34;;;;;;;;;;;23.80;43.80;;;23.03;44.35;100579.47;12246863;19;19915;-82
2023/07/21 14:59:35;;;;;;;;;;;23.80;43.80;;;23.02;44.71;100569.81;12250817;19;19948;-83
2023/07/21 15:03:37;;;;;;;;;;;23.90;43.60;;;23.07;44.69;100570.16;12251631;19;19919;-82
2023/07/21 15:07:38;;;;;;;;;;;23.90;43.80;;;23.09;44.86;100568.97;12243576;19;19987;-82
2023/07/21 15:11:40;;;;;;;;;;;24.00;43.60;;;23.08;44.87;100567.31;12247149;19;20337;-82
2023/07/21 15:15:41;;;;;;;;;;;24.00;43.30;;;23.09;44.67;100562.84;12250589;19;19918;-82
2023/07/21 15:19:43;;;;;;;;;;;24.00;43.40;;;23.13;44.46;100562.28;12252464;19;20369;-82
2023/07/21 15:23:44;;;;;;;;;;;24.00;43.30;;;23.16;44.97;100569.94;12248740;19;20349;-82
2023/07/21 15:27:47;;;;;;;;;;;24.00;43.20;;;23.17;44.83;100565.47;12245181;19;19922;-82
2023/07/21 15:31:51;;;;;;;;;;;24.00;43.30;;;23.22;44.73;100576.41;12251095;19;20265;-83
2023/07/21 15:35:52;;;;;;;;;;;24.10;43.60;;;23.20;44.73;100565.13;12247800;19;19923;-83
2023/07/21 15:39:56;;;;;;;;;;;24.10;43.40;;;23.12;44.60;100551.81;12251467;19;20007;-82
2023/07/21 15:43:57;;;;;;;;;;;24.10;43.20;;;23.25;44.88;100576.09;12248452;19;19914;-82
2023/07/21 15:47:59;;;;;;;;;;;24.10;43.30;;;23.31;44.59;100574.59;12245241;19;19917;-83
2023/07/21 15:52:00;;;;;;;;;;;24.20;43.30;;;23.29;44.57;100564.09;12249478;19;20317;-84
2023/07/21 15:56:02;;;;;;;;;;;24.20;43.30;;;23.22;44.66;100548.94;12245341;19;19915;-85
2023/07/21 16:00:10;;;;;;;;;;;24.20;43.20;;;23.38;44.41;100568.38;12251483;19;19918;-84
2023/07/21 16:04:13;;;;;;;;;;;24.30;43.10;;;23.43;44.61;100573.19;12246600;19;19923;-82
2023/07/21 16:08:15;;;;;;;;;;;24.30;43.10;;;23.50;44.66;100573.34;12245384;19;20300;-82
2023/07/21 16:12:16;;;;;;;;;;;24.30;43.10;;;23.53;44.53;100586.34;12247165;19;19923;-82
2023/07/21 16:16:18;;;;;;;;;;;24.30;43.00;;;23.54;44.51;100569.31;12244056;19;19914;-82
2023/07/21 16:20:19;;;;;;;;;;;24.40;43.00;;;23.47;44.38;100555.03;12246598;19;19989;-82
2023/07/21 16:24:21;;;;;;;;;;;24.40;43.00;;;23.57;44.78;100575.16;12247915;19;19940;-82
2023/07/21 16:28:22;;;;;;;;;;;24.40;43.00;;;23.60;44.47;100564.16;12245953;19;19918;-82
2023/07/21 16:32:25;;;;;;;;;;;24.50;43.00;;;23.59;44.60;100565.13;12237119;19;19923;-83
2023/07/21 16:36:27;;;;;;;;;;;24.50;43.00;;;23.62;44.53;100562.09;12235682;19;19926;-82
2023/07/21 16:40:28;;;;;;;;;;;24.50;43.00;;;23.55;44.76;100553.16;12245724;19;19939;-82
2023/07/21 16:44:33;;;;;;;;;;;24.50;42.90;;;23.58;44.63;100554.66;12245668;19;19930;-82
2023/07/21 16:48:35;;;;;;;;;;;24.50;42.80;;;23.60;44.53;100552.63;12245020;19;19923;-82
2023/07/21 16:52:37;;;;;;;;;;;24.50;42.80;;;23.66;44.21;100562.63;12243862;19;19931;-82
2023/07/21 16:56:39;;;;;;;;;;;24.50;43.00;;;23.63;44.71;100569.13;12240455;19;20261;-82
2023/07/21 17:00:40;;;;;;;;;;;24.50;42.80;;;23.55;44.26;100558.50;12244548;19;19922;-82
2023/07/21 17:04:42;;;;;;;;;;;24.50;42.80;;;23.61;44.20;100559.63;12242949;19;19978;-82
2023/07/21 17:08:43;;;;;;;;;;;24.50;42.90;;;23.56;44.38;100556.66;12240201;19;19941;-82
2023/07/21 17:12:46;;;;;;;;;;;24.40;42.90;;;23.57;44.17;100555.66;12246371;19;19919;-82
2023/07/21 17:16:48;;;;;;;;;;;24.40;43.00;;;23.49;44.29;100550.34;12240813;19;19911;-82
2023/07/21 17:20:50;;;;;;;;;;;24.40;43.00;;;23.48;44.17;100554.03;12245065;19;19906;-82
2023/07/21 17:24:55;;;;;;;;;;;24.40;42.90;;;23.50;44.54;100560.84;12241744;19;20015;-82
2023/07/21 17:28:57;;;;;;;;;;;24.30;43.00;;;23.47;44.51;100557.72;12248895;19;20357;-86
2023/07/21 17:32:59;;;;;;;;;;;24.30;43.00;;;23.44;44.23;100561.56;12258938;19;20306;-86
2023/07/21 17:37:00;;;;;;;;;;;24.30;43.10;;;23.40;44.21;100563.72;12257444;19;19959;-87
2023/07/21 17:41:02;;;;;;;;;;;24.30;43.00;;;23.41;44.37;100578.72;12259976;19;19914;-86
2023/07/21 17:45:05;;;;;;;;;;;24.30;43.10;;;23.35;44.31;100574.06;12251805;19;19919;-86
2023/07/21 17:49:07;;;;;;;;;;;24.20;43.20;;;23.36;44.30;100577.56;12254547;19;20266;-86
2023/07/21 17:53:10;;;;;;;;;;;24.20;43.30;;;23.37;44.42;100588.03;12249378;19;20361;-87
2023/07/21 17:57:11;;;;;;;;;;;24.20;43.40;;;23.08;44.59;100539.84;12254756;19;20255;-86
2023/07/21 18:01:12;;;;;;;;;;;24.10;43.40;;;23.19;44.57;100568.78;12254987;19;19937;-86
2023/07/21 18:05:15;;;;;;;;;;;24.10;43.50;;;23.06;44.63;100547.16;12254564;19;19914;-87
2023/07/21 18:09:17;;;;;;;;;;;24.00;43.40;;;23.24;44.52;100638.38;12256338;19;19930;-87
2023/07/21 18:13:27;;;;;;;;;;;24.00;43.70;;;23.08;44.50;100630.41;12258136;19;19910;-87